sensor_id;sensor_type;location;lat;lon;timestamp;temperature;humidity
49236;DHT22;35067;48.134;8.378;2023-04-25T00:00:50;6.50;99.90
49236;DHT22;35067;48.134;8.378;2023-04-25T00:01:52;6.50;99.90
49236;DHT22;35067;48.134;8.378;2023-04-25T00:02:53;6.40;99.90
49236;DHT22;35067;48.134;8.378;2023-04-25T00:03:56;6.40;99.90
49236;DHT22;35067;48.134;8.378;2023-04-25T00:04:57;6.40;99.90
49236;DHT22;35067;48.134;8.378;2023-04-25T00:05:59;6.50;99.90
49236;DHT22;35067;48.134;8.378;2023-04-25T00:07:02;6.50;99.90
49236;DHT22;35067;48.134;8.378;2023-04-25T00:08:04;6.50;99.90
49236;DHT22;35067;48.134;8.378;2023-04-25T00:09:06;6.40;99.90
49236;DHT22;35067;48.134;8.378;2023-04-25T00:10:09;6.30;99.90
49236;DHT22;35067;48.134;8.378;2023-04-25T00:11:12;6.20;99.90
49236;DHT22;35067;48.134;8.378;2023-04-25T00:12:13;6.30;99.90
49236;DHT22;35067;48.134;8.378;2023-04-25T00:13:15;6.20;99.90
49236;DHT22;35067;48.134;8.378;2023-04-25T00:14:18;6.10;99.90
49236;DHT22;35067;48.134;8.378;2023-04-25T00:15:19;6.20;99.90
49236;DHT22;35067;48.134;8.378;2023-04-25T00:16:22;6.20;99.90
49236;DHT22;35067;48.134;8.378;2023-04-25T00:17:24;6.30;99.90
49236;DHT22;35067;48.134;8.378;2023-04-25T00:18:27;6.30;99.90
49236;DHT22;35067;48.134;8.378;2023-04-25T00:19:33;6.40;99.90
49236;DHT22;35067;48.134;8.378;2023-04-25T00:20:35;6.40;99.90
49236;DHT22;35067;48.134;8.378;2023-04-25T00:21:37;6.40;99.90
49236;DHT22;35067;48.134;8.378;2023-04-25T00:22:40;6.40;99.90
49236;DHT22;35067;48.134;8.378;2023-04-25T00:23:42;6.40;99.90
49236;DHT22;35067;48.134;8.378;2023-04-25T00:24:43;6.40;99.90
49236;DHT22;35067;48.134;8.378;2023-04-25T00:25:46;6.40;99.90
49236;DHT22;35067;48.134;8.378;2023-04-25T00:26:49;6.30;99.90
49236;DHT22;35067;48.134;8.378;2023-04-25T00:27:50;6.30;99.90
49236;DHT22;35067;48.134;8.378;2023-04-25T00:28:50;6.30;99.90
49236;DHT22;35067;48.134;8.378;2023-04-25T00:29:53;6.30;99.90
49236;DHT22;35067;48.134;8.378;2023-04-25T00:30:53;6.30;99.90
49236;DHT22;35067;48.134;8.378;2023-04-25T00:31:54;6.30;99.90
49236;DHT22;35067;48.134;8.378;2023-04-25T00:32:55;6.20;99.90
49236;DHT22;35067;48.134;8.378;2023-04-25T00:33:55;6.30;99.90
49236;DHT22;35067;48.134;8.378;2023-04-25T00:34:56;6.30;99.90
49236;DHT22;35067;48.134;8.378;2023-04-25T00:35:58;6.30;99.90
49236;DHT22;35067;48.134;8.378;2023-04-25T00:37:00;6.40;99.90
49236;DHT22;35067;48.134;8.378;2023-04-25T00:38:02;6.40;99.90
49236;DHT22;35067;48.134;8.378;2023-04-25T00:39:03;6.50;99.90
49236;DHT22;35067;48.134;8.378;2023-04-25T00:40:06;6.60;99.90
49236;DHT22;35067;48.134;8.378;2023-04-25T00:41:12;6.60;99.90
49236;DHT22;35067;48.134;8.378;2023-04-25T00:42:12;6.50;99.90
49236;DHT22;35067;48.134;8.378;2023-04-25T00:43:14;6.50;99.90
49236;DHT22;35067;48.134;8.378;2023-04-25T00:44:15;6.50;99.90
49236;DHT22;35067;48.134;8.378;2023-04-25T00:45:17;6.60;99.90
49236;DHT22;35067;48.134;8.378;2023-04-25T00:46:18;6.50;99.90
49236;DHT22;35067;48.134;8.378;2023-04-25T00:47:19;6.40;99.90
49236;DHT22;35067;48.134;8.378;2023-04-25T00:48:23;6.30;99.90
49236;DHT22;35067;48.134;8.378;2023-04-25T00:49:23;6.20;99.90
49236;DHT22;35067;48.134;8.378;2023-04-25T00:50:24;6.20;99.90
49236;DHT22;35067;48.134;8.378;2023-04-25T00:51:26;6.10;99.90
49236;DHT22;35067;48.134;8.378;2023-04-25T00:52:27;6.10;99.90
49236;DHT22;35067;48.134;8.378;2023-04-25T00:53:28;6.00;99.90
49236;DHT22;35067;48.134;8.378;2023-04-25T00:54:30;6.00;99.90
49236;DHT22;35067;48.134;8.378;2023-04-25T00:55:31;6.00;99.90
49236;DHT22;35067;48.134;8.378;2023-04-25T00:56:32;6.00;99.90
49236;DHT22;35067;48.134;8.378;2023-04-25T00:57:34;6.00;99.90
49236;DHT22;35067;48.134;8.378;2023-04-25T00:58:35;5.90;99.90
49236;DHT22;35067;48.134;8.378;2023-04-25T00:59:36;5.80;99.90
49236;DHT22;35067;48.134;8.378;2023-04-25T01:00:40;5.80;99.90
49236;DHT22;35067;48.134;8.378;2023-04-25T01:01:41;5.70;99.90
49236;DHT22;35067;48.134;8.378;2023-04-25T01:02:44;5.80;99.90
49236;DHT22;35067;48.134;8.378;2023-04-25T01:03:46;5.70;99.90
49236;DHT22;35067;48.134;8.378;2023-04-25T01:04:47;5.50;99.90
49236;DHT22;35067;48.134;8.378;2023-04-25T01:05:51;5.50;99.90
49236;DHT22;35067;48.134;8.378;2023-04-25T01:06:54;5.50;99.90
49236;DHT22;35067;48.134;8.378;2023-04-25T01:07:55;5.40;99.90
49236;DHT22;35067;48.134;8.378;2023-04-25T01:08:56;5.40;99.90
49236;DHT22;35067;48.134;8.378;2023-04-25T01:09:59;5.50;99.90
49236;DHT22;35067;48.134;8.378;2023-04-25T01:11:00;5.50;99.90
49236;DHT22;35067;48.134;8.378;2023-04-25T01:12:01;5.40;99.90
49236;DHT22;35067;48.134;8.378;2023-04-25T01:13:03;5.40;99.90
49236;DHT22;35067;48.134;8.378;2023-04-25T01:14:04;5.50;99.90
49236;DHT22;35067;48.134;8.378;2023-04-25T01:15:05;5.60;99.90
49236;DHT22;35067;48.134;8.378;2023-04-25T01:16:06;5.60;99.90
49236;DHT22;35067;48.134;8.378;2023-04-25T01:17:08;5.70;99.90
49236;DHT22;35067;48.134;8.378;2023-04-25T01:18:12;5.70;99.90
49236;DHT22;35067;48.134;8.378;2023-04-25T01:19:16;5.70;99.90
49236;DHT22;35067;48.134;8.378;2023-04-25T01:20:20;5.80;99.90
49236;DHT22;35067;48.134;8.378;2023-04-25T01:21:23;5.70;99.90
49236;DHT22;35067;48.134;8.378;2023-04-25T01:22:26;5.70;99.90
49236;DHT22;35067;48.134;8.378;2023-04-25T01:23:28;5.70;99.90
49236;DHT22;35067;48.134;8.378;2023-04-25T01:24:32;5.70;99.90
49236;DHT22;35067;48.134;8.378;2023-04-25T01:25:32;5.60;99.90
49236;DHT22;35067;48.134;8.378;2023-04-25T01:26:35;5.60;99.90
49236;DHT22;35067;48.134;8.378;2023-04-25T01:27:37;5.60;99.90
49236;DHT22;35067;48.134;8.378;2023-04-25T01:28:40;5.60;99.90
49236;DHT22;35067;48.134;8.378;2023-04-25T01:29:42;5.50;99.90
49236;DHT22;35067;48.134;8.378;2023-04-25T01:30:43;5.40;99.90
49236;DHT22;35067;48.134;8.378;2023-04-25T01:31:45;5.50;99.90
49236;DHT22;35067;48.134;8.378;2023-04-25T01:32:47;5.50;99.90
49236;DHT22;35067;48.134;8.378;2023-04-25T01:33:48;5.60;99.90
49236;DHT22;35067;48.134;8.378;2023-04-25T01:34:49;5.50;99.90
49236;DHT22;35067;48.134;8.378;2023-04-25T01:35:50;5.50;99.90
49236;DHT22;35067;48.134;8.378;2023-04-25T01:36:53;5.50;99.90
49236;DHT22;35067;48.134;8.378;2023-04-25T01:37:55;5.50;99.90
49236;DHT22;35067;48.134;8.378;2023-04-25T01:38:56;5.40;99.90
49236;DHT22;35067;48.134;8.378;2023-04-25T01:39:57;5.30;99.90
49236;DHT22;35067;48.134;8.378;2023-04-25T01:40:58;5.40;99.90
49236;DHT22;35067;48.134;8.378;2023-04-25T01:42:00;5.30;99.90
49236;DHT22;35067;48.134;8.378;2023-04-25T01:43:01;5.10;99.90
49236;DHT22;35067;48.134;8.378;2023-04-25T01:44:03;5.10;99.90
49236;DHT22;35067;48.134;8.378;2023-04-25T01:45:04;5.20;99.90
49236;DHT22;35067;48.134;8.378;2023-04-25T01:46:06;5.20;99.90
49236;DHT22;35067;48.134;8.378;2023-04-25T01:47:07;5.30;99.90
49236;DHT22;35067;48.134;8.378;2023-04-25T01:48:10;5.30;99.90
49236;DHT22;35067;48.134;8.378;2023-04-25T01:49:12;5.30;99.90
49236;DHT22;35067;48.134;8.378;2023-04-25T01:50:13;5.30;99.90
49236;DHT22;35067;48.134;8.378;2023-04-25T01:51:17;5.30;99.90
49236;DHT22;35067;48.134;8.378;2023-04-25T01:52:18;5.30;99.90
49236;DHT22;35067;48.134;8.378;2023-04-25T01:53:19;5.30;99.90
49236;DHT22;35067;48.134;8.378;2023-04-25T01:54:21;5.30;99.90
49236;DHT22;35067;48.134;8.378;2023-04-25T01:55:23;5.30;99.90
49236;DHT22;35067;48.134;8.378;2023-04-25T01:56:25;5.30;99.90
49236;DHT22;35067;48.134;8.378;2023-04-25T01:57:30;5.30;99.90
49236;DHT22;35067;48.134;8.378;2023-04-25T01:58:31;5.30;99.90
49236;DHT22;35067;48.134;8.378;2023-04-25T01:59:32;5.30;99.90
49236;DHT22;35067;48.134;8.378;2023-04-25T02:00:33;5.40;99.90
49236;DHT22;35067;48.134;8.378;2023-04-25T02:01:33;5.40;99.90
49236;DHT22;35067;48.134;8.378;2023-04-25T02:02:35;5.40;99.90
49236;DHT22;35067;48.134;8.378;2023-04-25T02:03:36;5.30;99.90
49236;DHT22;35067;48.134;8.378;2023-04-25T02:04:37;5.30;99.90
49236;DHT22;35067;48.134;8.378;2023-04-25T02:05:38;5.30;99.90
49236;DHT22;35067;48.134;8.378;2023-04-25T02:06:39;5.40;99.90
49236;DHT22;35067;48.134;8.378;2023-04-25T02:07:40;5.40;99.90
49236;DHT22;35067;48.134;8.378;2023-04-25T02:08:40;5.30;99.90
49236;DHT22;35067;48.134;8.378;2023-04-25T02:09:42;5.30;99.90
49236;DHT22;35067;48.134;8.378;2023-04-25T02:10:43;5.30;99.90
49236;DHT22;35067;48.134;8.378;2023-04-25T02:11:44;5.20;99.90
49236;DHT22;35067;48.134;8.378;2023-04-25T02:12:44;5.10;99.90
49236;DHT22;35067;48.134;8.378;2023-04-25T02:13:45;5.20;99.90
49236;DHT22;35067;48.134;8.378;2023-04-25T02:14:46;5.20;99.90
49236;DHT22;35067;48.134;8.378;2023-04-25T02:15:46;5.20;99.90
49236;DHT22;35067;48.134;8.378;2023-04-25T02:16:47;5.20;99.90
49236;DHT22;35067;48.134;8.378;2023-04-25T02:17:48;5.10;99.90
49236;DHT22;35067;48.134;8.378;2023-04-25T02:18:49;5.10;99.90
49236;DHT22;35067;48.134;8.378;2023-04-25T02:19:54;5.00;99.90
49236;DHT22;35067;48.134;8.378;2023-04-25T02:20:55;5.00;99.90
49236;DHT22;35067;48.134;8.378;2023-04-25T02:21:57;4.90;99.90
49236;DHT22;35067;48.134;8.378;2023-04-25T02:22:58;4.90;99.90
49236;DHT22;35067;48.134;8.378;2023-04-25T02:23:59;4.80;99.90
49236;DHT22;35067;48.134;8.378;2023-04-25T02:25:00;4.80;99.90
49236;DHT22;35067;48.134;8.378;2023-04-25T02:26:01;4.80;99.90
49236;DHT22;35067;48.134;8.378;2023-04-25T02:27:02;4.70;99.90
49236;DHT22;35067;48.134;8.378;2023-04-25T02:28:03;4.70;99.90
49236;DHT22;35067;48.134;8.378;2023-04-25T02:29:04;4.60;99.90
49236;DHT22;35067;48.134;8.378;2023-04-25T02:30:05;4.50;99.90
49236;DHT22;35067;48.134;8.378;2023-04-25T02:31:07;4.50;99.90
49236;DHT22;35067;48.134;8.378;2023-04-25T02:32:08;4.50;99.90
49236;DHT22;35067;48.134;8.378;2023-04-25T02:33:09;4.50;99.90
49236;DHT22;35067;48.134;8.378;2023-04-25T02:34:10;4.40;99.90
49236;DHT22;35067;48.134;8.378;2023-04-25T02:35:12;4.30;99.90
49236;DHT22;35067;48.134;8.378;2023-04-25T02:36:12;4.30;99.90
49236;DHT22;35067;48.134;8.378;2023-04-25T02:37:13;4.40;99.90
49236;DHT22;35067;48.134;8.378;2023-04-25T02:38:14;4.30;99.90
49236;DHT22;35067;48.134;8.378;2023-04-25T02:39:16;4.30;99.90
49236;DHT22;35067;48.134;8.378;2023-04-25T02:40:19;4.30;99.90
49236;DHT22;35067;48.134;8.378;2023-04-25T02:41:20;4.20;99.90
49236;DHT22;35067;48.134;8.378;2023-04-25T02:42:21;4.20;99.90
49236;DHT22;35067;48.134;8.378;2023-04-25T02:43:23;4.20;99.90
49236;DHT22;35067;48.134;8.378;2023-04-25T02:44:25;4.20;99.90
49236;DHT22;35067;48.134;8.378;2023-04-25T02:45:26;4.20;99.90
49236;DHT22;35067;48.134;8.378;2023-04-25T02:46:27;4.20;99.90
49236;DHT22;35067;48.134;8.378;2023-04-25T02:47:29;4.20;99.90
49236;DHT22;35067;48.134;8.378;2023-04-25T02:48:29;4.10;99.90
49236;DHT22;35067;48.134;8.378;2023-04-25T02:49:30;4.20;99.90
49236;DHT22;35067;48.134;8.378;2023-04-25T02:50:31;4.20;99.90
49236;DHT22;35067;48.134;8.378;2023-04-25T02:51:31;4.20;99.90
49236;DHT22;35067;48.134;8.378;2023-04-25T02:52:32;4.20;99.90
49236;DHT22;35067;48.134;8.378;2023-04-25T02:53:33;4.10;99.90
49236;DHT22;35067;48.134;8.378;2023-04-25T02:54:34;4.20;99.90
49236;DHT22;35067;48.134;8.378;2023-04-25T02:55:36;4.10;99.90
49236;DHT22;35067;48.134;8.378;2023-04-25T02:56:36;4.10;99.90
49236;DHT22;35067;48.134;8.378;2023-04-25T02:57:37;4.10;99.90
49236;DHT22;35067;48.134;8.378;2023-04-25T02:58:38;4.10;99.90
49236;DHT22;35067;48.134;8.378;2023-04-25T02:59:40;4.00;99.90
49236;DHT22;35067;48.134;8.378;2023-04-25T03:00:41;4.10;99.90
49236;DHT22;35067;48.134;8.378;2023-04-25T03:01:43;4.10;99.90
49236;DHT22;35067;48.134;8.378;2023-04-25T03:02:45;4.10;99.90
49236;DHT22;35067;48.134;8.378;2023-04-25T03:03:46;4.10;99.90
49236;DHT22;35067;48.134;8.378;2023-04-25T03:04:48;4.10;99.90
49236;DHT22;35067;48.134;8.378;2023-04-25T03:05:49;4.20;99.90
49236;DHT22;35067;48.134;8.378;2023-04-25T03:06:52;4.20;99.90
49236;DHT22;35067;48.134;8.378;2023-04-25T03:07:54;4.20;99.90
49236;DHT22;35067;48.134;8.378;2023-04-25T03:08:56;4.20;99.90
49236;DHT22;35067;48.134;8.378;2023-04-25T03:09:59;4.20;99.90
49236;DHT22;35067;48.134;8.378;2023-04-25T03:11:00;4.20;99.90
49236;DHT22;35067;48.134;8.378;2023-04-25T03:12:01;4.20;99.90
49236;DHT22;35067;48.134;8.378;2023-04-25T03:13:02;4.20;99.90
49236;DHT22;35067;48.134;8.378;2023-04-25T03:14:03;4.20;99.90
49236;DHT22;35067;48.134;8.378;2023-04-25T03:15:04;4.10;99.90
49236;DHT22;35067;48.134;8.378;2023-04-25T03:16:05;4.10;99.90
49236;DHT22;35067;48.134;8.378;2023-04-25T03:17:06;4.20;99.90
49236;DHT22;35067;48.134;8.378;2023-04-25T03:18:06;4.20;99.90
49236;DHT22;35067;48.134;8.378;2023-04-25T03:19:07;4.20;99.90
49236;DHT22;35067;48.134;8.378;2023-04-25T03:20:08;4.30;99.90
49236;DHT22;35067;48.134;8.378;2023-04-25T03:21:10;4.30;99.90
49236;DHT22;35067;48.134;8.378;2023-04-25T03:22:11;4.30;99.90
49236;DHT22;35067;48.134;8.378;2023-04-25T03:23:11;4.40;99.90
49236;DHT22;35067;48.134;8.378;2023-04-25T03:24:12;4.40;99.90
49236;DHT22;35067;48.134;8.378;2023-04-25T03:25:13;4.40;99.90
49236;DHT22;35067;48.134;8.378;2023-04-25T03:26:14;4.40;99.90
49236;DHT22;35067;48.134;8.378;2023-04-25T03:27:15;4.40;99.90
49236;DHT22;35067;48.134;8.378;2023-04-25T03:28:17;4.40;99.90
49236;DHT22;35067;48.134;8.378;2023-04-25T03:29:20;4.40;99.90
49236;DHT22;35067;48.134;8.378;2023-04-25T03:30:25;4.50;99.90
49236;DHT22;35067;48.134;8.378;2023-04-25T03:31:25;4.60;99.90
49236;DHT22;35067;48.134;8.378;2023-04-25T03:32:26;4.60;99.90
49236;DHT22;35067;48.134;8.378;2023-04-25T03:33:27;4.60;99.90
49236;DHT22;35067;48.134;8.378;2023-04-25T03:34:28;4.60;99.90
49236;DHT22;35067;48.134;8.378;2023-04-25T03:35:30;4.60;99.90
49236;DHT22;35067;48.134;8.378;2023-04-25T03:36:31;4.70;99.90
49236;DHT22;35067;48.134;8.378;2023-04-25T03:37:34;4.70;99.90
49236;DHT22;35067;48.134;8.378;2023-04-25T03:38:35;4.70;99.90
49236;DHT22;35067;48.134;8.378;2023-04-25T03:39:36;4.80;99.90
49236;DHT22;35067;48.134;8.378;2023-04-25T03:40:37;4.80;99.90
49236;DHT22;35067;48.134;8.378;2023-04-25T03:41:38;4.80;99.90
49236;DHT22;35067;48.134;8.378;2023-04-25T03:42:39;4.80;99.90
49236;DHT22;35067;48.134;8.378;2023-04-25T03:43:40;4.80;99.90
49236;DHT22;35067;48.134;8.378;2023-04-25T03:44:40;4.90;99.90
49236;DHT22;35067;48.134;8.378;2023-04-25T03:45:42;4.80;99.90
49236;DHT22;35067;48.134;8.378;2023-04-25T03:46:43;4.80;99.90
49236;DHT22;35067;48.134;8.378;2023-04-25T03:47:44;4.80;99.90
49236;DHT22;35067;48.134;8.378;2023-04-25T03:48:46;4.90;99.90
49236;DHT22;35067;48.134;8.378;2023-04-25T03:49:49;4.90;99.90
49236;DHT22;35067;48.134;8.378;2023-04-25T03:50:52;4.90;99.90
49236;DHT22;35067;48.134;8.378;2023-04-25T03:51:53;4.90;99.90
49236;DHT22;35067;48.134;8.378;2023-04-25T03:52:54;4.90;99.90
49236;DHT22;35067;48.134;8.378;2023-04-25T03:53:55;5.00;99.90
49236;DHT22;35067;48.134;8.378;2023-04-25T03:54:55;4.90;99.90
49236;DHT22;35067;48.134;8.378;2023-04-25T03:55:56;4.90;99.90
49236;DHT22;35067;48.134;8.378;2023-04-25T03:56:57;4.90;99.90
49236;DHT22;35067;48.134;8.378;2023-04-25T03:57:58;4.90;99.90
49236;DHT22;35067;48.134;8.378;2023-04-25T03:58:58;4.80;99.90
49236;DHT22;35067;48.134;8.378;2023-04-25T03:59:59;4.90;99.90
49236;DHT22;35067;48.134;8.378;2023-04-25T04:01:00;4.90;99.90
49236;DHT22;35067;48.134;8.378;2023-04-25T04:02:07;4.90;99.90
49236;DHT22;35067;48.134;8.378;2023-04-25T04:03:08;4.90;99.90
49236;DHT22;35067;48.134;8.378;2023-04-25T04:04:11;4.90;99.90
49236;DHT22;35067;48.134;8.378;2023-04-25T04:05:13;4.90;99.90
49236;DHT22;35067;48.134;8.378;2023-04-25T04:06:14;4.90;99.90
49236;DHT22;35067;48.134;8.378;2023-04-25T04:07:15;4.90;99.90
49236;DHT22;35067;48.134;8.378;2023-04-25T04:08:15;4.80;99.90
49236;DHT22;35067;48.134;8.378;2023-04-25T04:09:16;4.90;99.90
49236;DHT22;35067;48.134;8.378;2023-04-25T04:10:17;4.90;99.90
49236;DHT22;35067;48.134;8.378;2023-04-25T04:11:17;4.90;99.90
49236;DHT22;35067;48.134;8.378;2023-04-25T04:12:18;5.00;99.90
49236;DHT22;35067;48.134;8.378;2023-04-25T04:13:19;5.00;99.90
49236;DHT22;35067;48.134;8.378;2023-04-25T04:14:19;5.00;99.90
49236;DHT22;35067;48.134;8.378;2023-04-25T04:15:22;5.00;99.90
49236;DHT22;35067;48.134;8.378;2023-04-25T04:16:22;4.90;99.90
49236;DHT22;35067;48.134;8.378;2023-04-25T04:17:25;4.90;99.90
49236;DHT22;35067;48.134;8.378;2023-04-25T04:18:26;4.90;99.90
49236;DHT22;35067;48.134;8.378;2023-04-25T04:19:26;5.00;99.90
49236;DHT22;35067;48.134;8.378;2023-04-25T04:20:27;5.00;99.90
49236;DHT22;35067;48.134;8.378;2023-04-25T04:21:28;5.00;99.90
49236;DHT22;35067;48.134;8.378;2023-04-25T04:22:29;5.00;99.90
49236;DHT22;35067;48.134;8.378;2023-04-25T04:23:31;5.00;99.90
49236;DHT22;35067;48.134;8.378;2023-04-25T04:24:32;5.10;99.90
49236;DHT22;35067;48.134;8.378;2023-04-25T04:25:33;5.10;99.90
49236;DHT22;35067;48.134;8.378;2023-04-25T04:26:34;5.10;99.90
49236;DHT22;35067;48.134;8.378;2023-04-25T04:27:35;5.00;99.90
49236;DHT22;35067;48.134;8.378;2023-04-25T04:28:36;5.00;99.90
49236;DHT22;35067;48.134;8.378;2023-04-25T04:29:38;4.90;99.90
49236;DHT22;35067;48.134;8.378;2023-04-25T04:30:39;4.70;99.90
49236;DHT22;35067;48.134;8.378;2023-04-25T04:31:41;4.60;99.90
49236;DHT22;35067;48.134;8.378;2023-04-25T04:32:42;4.50;99.90
49236;DHT22;35067;48.134;8.378;2023-04-25T04:33:43;4.50;99.90
49236;DHT22;35067;48.134;8.378;2023-04-25T04:34:45;4.40;99.90
49236;DHT22;35067;48.134;8.378;2023-04-25T04:35:47;4.40;99.90
49236;DHT22;35067;48.134;8.378;2023-04-25T04:36:48;4.40;99.90
49236;DHT22;35067;48.134;8.378;2023-04-25T04:37:49;4.40;99.90
49236;DHT22;35067;48.134;8.378;2023-04-25T04:38:51;4.40;99.90
49236;DHT22;35067;48.134;8.378;2023-04-25T04:39:52;4.50;99.90
49236;DHT22;35067;48.134;8.378;2023-04-25T04:40:53;4.40;99.90
49236;DHT22;35067;48.134;8.378;2023-04-25T04:41:54;4.50;99.90
49236;DHT22;35067;48.134;8.378;2023-04-25T04:42:55;4.50;99.90
49236;DHT22;35067;48.134;8.378;2023-04-25T04:43:56;4.50;99.90
49236;DHT22;35067;48.134;8.378;2023-04-25T04:44:57;4.50;99.90
49236;DHT22;35067;48.134;8.378;2023-04-25T04:46:00;4.50;99.90
49236;DHT22;35067;48.134;8.378;2023-04-25T04:47:02;4.50;99.90
49236;DHT22;35067;48.134;8.378;2023-04-25T04:48:06;4.50;99.90
49236;DHT22;35067;48.134;8.378;2023-04-25T04:49:08;4.50;99.90
49236;DHT22;35067;48.134;8.378;2023-04-25T04:50:10;4.40;99.90
49236;DHT22;35067;48.134;8.378;2023-04-25T04:51:11;4.30;99.90
49236;DHT22;35067;48.134;8.378;2023-04-25T04:52:12;4.30;99.90
49236;DHT22;35067;48.134;8.378;2023-04-25T04:53:13;4.30;99.90
49236;DHT22;35067;48.134;8.378;2023-04-25T04:54:13;4.30;99.90
49236;DHT22;35067;48.134;8.378;2023-04-25T04:55:14;4.40;99.90
49236;DHT22;35067;48.134;8.378;2023-04-25T04:56:15;4.30;99.90
49236;DHT22;35067;48.134;8.378;2023-04-25T04:57:15;4.30;99.90
49236;DHT22;35067;48.134;8.378;2023-04-25T04:58:16;4.30;99.90
49236;DHT22;35067;48.134;8.378;2023-04-25T04:59:17;4.30;99.90
49236;DHT22;35067;48.134;8.378;2023-04-25T05:00:18;4.30;99.90
49236;DHT22;35067;48.134;8.378;2023-04-25T05:01:19;4.30;99.90
49236;DHT22;35067;48.134;8.378;2023-04-25T05:02:20;4.30;99.90
49236;DHT22;35067;48.134;8.378;2023-04-25T05:03:22;4.30;99.90
49236;DHT22;35067;48.134;8.378;2023-04-25T05:04:22;4.30;99.90
49236;DHT22;35067;48.134;8.378;2023-04-25T05:05:23;4.30;99.90
49236;DHT22;35067;48.134;8.378;2023-04-25T05:06:24;4.20;99.90
49236;DHT22;35067;48.134;8.378;2023-04-25T05:07:26;4.20;99.90
49236;DHT22;35067;48.134;8.378;2023-04-25T05:08:27;4.20;99.90
49236;DHT22;35067;48.134;8.378;2023-04-25T05:09:29;4.30;99.90
49236;DHT22;35067;48.134;8.378;2023-04-25T05:10:30;4.20;99.90
49236;DHT22;35067;48.134;8.378;2023-04-25T05:11:31;4.30;99.90
49236;DHT22;35067;48.134;8.378;2023-04-25T05:12:32;4.30;99.90
49236;DHT22;35067;48.134;8.378;2023-04-25T05:13:34;4.30;99.90
49236;DHT22;35067;48.134;8.378;2023-04-25T05:14:35;4.40;99.90
49236;DHT22;35067;48.134;8.378;2023-04-25T05:15:36;4.40;99.90
49236;DHT22;35067;48.134;8.378;2023-04-25T05:16:37;4.50;99.90
49236;DHT22;35067;48.134;8.378;2023-04-25T05:17:38;4.50;99.90
49236;DHT22;35067;48.134;8.378;2023-04-25T05:18:40;4.60;99.90
49236;DHT22;35067;48.134;8.378;2023-04-25T05:19:40;4.60;99.90
49236;DHT22;35067;48.134;8.378;2023-04-25T05:20:41;4.60;99.90
49236;DHT22;35067;48.134;8.378;2023-04-25T05:21:42;4.70;99.90
49236;DHT22;35067;48.134;8.378;2023-04-25T05:22:43;4.70;99.90
49236;DHT22;35067;48.134;8.378;2023-04-25T05:23:44;4.70;99.90
49236;DHT22;35067;48.134;8.378;2023-04-25T05:24:44;4.70;99.90
49236;DHT22;35067;48.134;8.378;2023-04-25T05:25:45;4.70;99.90
49236;DHT22;35067;48.134;8.378;2023-04-25T05:26:46;4.80;99.90
49236;DHT22;35067;48.134;8.378;2023-04-25T05:27:47;4.80;99.90
49236;DHT22;35067;48.134;8.378;2023-04-25T05:28:48;4.80;99.90
49236;DHT22;35067;48.134;8.378;2023-04-25T05:29:48;4.90;99.90
49236;DHT22;35067;48.134;8.378;2023-04-25T05:30:49;4.90;99.90
49236;DHT22;35067;48.134;8.378;2023-04-25T05:31:50;4.90;99.90
49236;DHT22;35067;48.134;8.378;2023-04-25T05:32:51;5.00;99.90
49236;DHT22;35067;48.134;8.378;2023-04-25T05:33:52;5.00;99.90
49236;DHT22;35067;48.134;8.378;2023-04-25T05:34:52;5.10;99.90
49236;DHT22;35067;48.134;8.378;2023-04-25T05:35:53;5.20;99.90
49236;DHT22;35067;48.134;8.378;2023-04-25T05:36:54;5.20;99.90
49236;DHT22;35067;48.134;8.378;2023-04-25T05:37:55;5.30;99.90
49236;DHT22;35067;48.134;8.378;2023-04-25T05:38:56;5.30;99.90
49236;DHT22;35067;48.134;8.378;2023-04-25T05:39:57;5.40;99.90
49236;DHT22;35067;48.134;8.378;2023-04-25T05:40:59;5.40;99.90
49236;DHT22;35067;48.134;8.378;2023-04-25T05:41:59;5.50;99.90
49236;DHT22;35067;48.134;8.378;2023-04-25T05:43:02;5.50;99.90
49236;DHT22;35067;48.134;8.378;2023-04-25T05:44:02;5.50;99.90
49236;DHT22;35067;48.134;8.378;2023-04-25T05:45:03;5.60;99.90
49236;DHT22;35067;48.134;8.378;2023-04-25T05:46:05;5.60;99.90
49236;DHT22;35067;48.134;8.378;2023-04-25T05:47:06;5.60;99.90
49236;DHT22;35067;48.134;8.378;2023-04-25T05:48:07;5.60;99.90
49236;DHT22;35067;48.134;8.378;2023-04-25T05:49:08;5.60;99.90
49236;DHT22;35067;48.134;8.378;2023-04-25T05:50:08;5.50;99.90
49236;DHT22;35067;48.134;8.378;2023-04-25T05:51:09;5.50;99.90
49236;DHT22;35067;48.134;8.378;2023-04-25T05:52:10;5.60;99.90
49236;DHT22;35067;48.134;8.378;2023-04-25T05:53:11;5.60;99.90
49236;DHT22;35067;48.134;8.378;2023-04-25T05:54:11;5.60;99.90
49236;DHT22;35067;48.134;8.378;2023-04-25T05:55:12;5.70;99.90
49236;DHT22;35067;48.134;8.378;2023-04-25T05:56:13;5.80;99.90
49236;DHT22;35067;48.134;8.378;2023-04-25T05:57:24;5.90;99.90
49236;DHT22;35067;48.134;8.378;2023-04-25T05:58:26;5.80;99.90
49236;DHT22;35067;48.134;8.378;2023-04-25T05:59:26;5.90;99.90
49236;DHT22;35067;48.134;8.378;2023-04-25T06:00:27;5.90;99.90
49236;DHT22;35067;48.134;8.378;2023-04-25T06:01:29;5.80;99.90
49236;DHT22;35067;48.134;8.378;2023-04-25T06:02:30;5.80;99.90
49236;DHT22;35067;48.134;8.378;2023-04-25T06:03:31;5.80;99.90
49236;DHT22;35067;48.134;8.378;2023-04-25T06:04:31;5.80;99.90
49236;DHT22;35067;48.134;8.378;2023-04-25T06:05:32;5.90;99.90
49236;DHT22;35067;48.134;8.378;2023-04-25T06:06:33;5.90;99.90
49236;DHT22;35067;48.134;8.378;2023-04-25T06:07:33;5.90;99.90
49236;DHT22;35067;48.134;8.378;2023-04-25T06:08:34;6.00;99.90
49236;DHT22;35067;48.134;8.378;2023-04-25T06:09:35;6.00;99.90
49236;DHT22;35067;48.134;8.378;2023-04-25T06:10:36;6.00;99.90
49236;DHT22;35067;48.134;8.378;2023-04-25T06:11:37;6.00;99.90
49236;DHT22;35067;48.134;8.378;2023-04-25T06:12:38;6.00;99.90
49236;DHT22;35067;48.134;8.378;2023-04-25T06:13:38;6.10;99.90
49236;DHT22;35067;48.134;8.378;2023-04-25T06:14:40;6.10;99.90
49236;DHT22;35067;48.134;8.378;2023-04-25T06:15:41;6.10;99.90
49236;DHT22;35067;48.134;8.378;2023-04-25T06:16:41;6.20;99.90
49236;DHT22;35067;48.134;8.378;2023-04-25T06:17:42;6.20;99.90
49236;DHT22;35067;48.134;8.378;2023-04-25T06:18:43;6.20;99.90
49236;DHT22;35067;48.134;8.378;2023-04-25T06:19:44;6.20;99.90
49236;DHT22;35067;48.134;8.378;2023-04-25T06:20:44;6.00;99.90
49236;DHT22;35067;48.134;8.378;2023-04-25T06:21:45;6.00;99.90
49236;DHT22;35067;48.134;8.378;2023-04-25T06:22:46;5.90;99.90
49236;DHT22;35067;48.134;8.378;2023-04-25T06:23:46;5.90;99.90
49236;DHT22;35067;48.134;8.378;2023-04-25T06:24:47;6.00;99.90
49236;DHT22;35067;48.134;8.378;2023-04-25T06:25:48;6.10;99.90
49236;DHT22;35067;48.134;8.378;2023-04-25T06:26:49;6.00;99.90
49236;DHT22;35067;48.134;8.378;2023-04-25T06:27:50;5.90;99.90
49236;DHT22;35067;48.134;8.378;2023-04-25T06:28:51;5.90;99.90
49236;DHT22;35067;48.134;8.378;2023-04-25T06:29:52;6.00;99.90
49236;DHT22;35067;48.134;8.378;2023-04-25T06:30:53;6.10;99.90
49236;DHT22;35067;48.134;8.378;2023-04-25T06:31:53;6.10;99.90
49236;DHT22;35067;48.134;8.378;2023-04-25T06:32:54;6.20;99.90
49236;DHT22;35067;48.134;8.378;2023-04-25T06:33:55;6.20;99.90